sensor_id;sensor_type;location;lat;lon;timestamp;P1;durP1;ratioP1;P2;durP2;ratioP2
249;SDS011;109;19.806;-70.704;2023-02-28T00:00:22;17.13;;;5.53;;
249;SDS011;109;19.806;-70.704;2023-02-28T00:02:49;11.10;;;5.53;;
249;SDS011;109;19.806;-70.704;2023-02-28T00:05:17;17.70;;;5.70;;
249;SDS011;109;19.806;-70.704;2023-02-28T00:07:45;16.30;;;6.17;;
249;SDS011;109;19.806;-70.704;2023-02-28T00:10:13;16.80;;;5.47;;
249;SDS011;109;19.806;-70.704;2023-02-28T00:12:49;16.80;;;6.13;;
249;SDS011;109;19.806;-70.704;2023-02-28T00:15:17;13.23;;;5.23;;
249;SDS011;109;19.806;-70.704;2023-02-28T00:17:44;8.20;;;5.70;;
249;SDS011;109;19.806;-70.704;2023-02-28T00:20:11;11.70;;;5.00;;
249;SDS011;109;19.806;-70.704;2023-02-28T00:22:39;14.27;;;5.93;;
249;SDS011;109;19.806;-70.704;2023-02-28T00:25:10;9.10;;;5.37;;
249;SDS011;109;19.806;-70.704;2023-02-28T00:27:38;11.13;;;6.60;;
249;SDS011;109;19.806;-70.704;2023-02-28T00:30:06;18.97;;;7.27;;
249;SDS011;109;19.806;-70.704;2023-02-28T00:32:36;18.30;;;7.03;;
249;SDS011;109;19.806;-70.704;2023-02-28T00:35:03;15.97;;;7.80;;
249;SDS011;109;19.806;-70.704;2023-02-28T00:37:31;14.50;;;6.33;;
249;SDS011;109;19.806;-70.704;2023-02-28T00:39:59;15.80;;;6.67;;
249;SDS011;109;19.806;-70.704;2023-02-28T00:42:26;11.60;;;7.00;;
249;SDS011;109;19.806;-70.704;2023-02-28T00:44:52;14.17;;;6.60;;
249;SDS011;109;19.806;-70.704;2023-02-28T00:47:26;17.17;;;6.93;;
249;SDS011;109;19.806;-70.704;2023-02-28T00:49:52;19.23;;;7.10;;
249;SDS011;109;19.806;-70.704;2023-02-28T00:52:25;15.67;;;7.30;;
249;SDS011;109;19.806;-70.704;2023-02-28T00:54:54;16.00;;;7.00;;
249;SDS011;109;19.806;-70.704;2023-02-28T00:57:27;17.83;;;6.40;;
249;SDS011;109;19.806;-70.704;2023-02-28T00:59:53;15.33;;;6.13;;
249;SDS011;109;19.806;-70.704;2023-02-28T01:02:27;11.33;;;6.17;;
249;SDS011;109;19.806;-70.704;2023-02-28T01:04:53;12.90;;;6.60;;
249;SDS011;109;19.806;-70.704;2023-02-28T01:07:29;9.20;;;6.50;;
249;SDS011;109;19.806;-70.704;2023-02-28T01:09:55;12.53;;;5.83;;
249;SDS011;109;19.806;-70.704;2023-02-28T01:12:29;16.10;;;6.87;;
249;SDS011;109;19.806;-70.704;2023-02-28T01:14:55;11.23;;;6.87;;
249;SDS011;109;19.806;-70.704;2023-02-28T01:17:29;15.20;;;6.40;;
249;SDS011;109;19.806;-70.704;2023-02-28T01:19:59;11.00;;;6.23;;
249;SDS011;109;19.806;-70.704;2023-02-28T01:22:34;17.33;;;7.17;;
249;SDS011;109;19.806;-70.704;2023-02-28T01:25:00;13.00;;;6.80;;
249;SDS011;109;19.806;-70.704;2023-02-28T01:27:34;16.27;;;6.40;;
249;SDS011;109;19.806;-70.704;2023-02-28T01:30:02;12.77;;;6.57;;
249;SDS011;109;19.806;-70.704;2023-02-28T01:32:36;10.97;;;6.60;;
249;SDS011;109;19.806;-70.704;2023-02-28T01:35:03;10.87;;;7.10;;
249;SDS011;109;19.806;-70.704;2023-02-28T01:37:37;17.03;;;6.47;;
249;SDS011;109;19.806;-70.704;2023-02-28T01:40:17;11.40;;;7.00;;
249;SDS011;109;19.806;-70.704;2023-02-28T01:42:44;12.50;;;6.90;;
249;SDS011;109;19.806;-70.704;2023-02-28T01:45:52;17.77;;;7.37;;
249;SDS011;109;19.806;-70.704;2023-02-28T01:48:19;17.73;;;7.00;;
249;SDS011;109;19.806;-70.704;2023-02-28T01:50:58;12.50;;;6.67;;
249;SDS011;109;19.806;-70.704;2023-02-28T01:53:39;12.47;;;6.60;;
249;SDS011;109;19.806;-70.704;2023-02-28T01:56:20;14.80;;;6.93;;
249;SDS011;109;19.806;-70.704;2023-02-28T01:58:57;11.93;;;6.97;;
249;SDS011;109;19.806;-70.704;2023-02-28T02:01:23;17.93;;;6.77;;
249;SDS011;109;19.806;-70.704;2023-02-28T02:04:01;18.40;;;7.30;;
249;SDS011;109;19.806;-70.704;2023-02-28T02:06:30;10.57;;;6.57;;
249;SDS011;109;19.806;-70.704;2023-02-28T02:09:10;14.30;;;6.50;;
249;SDS011;109;19.806;-70.704;2023-02-28T02:11:37;23.47;;;7.97;;
249;SDS011;109;19.806;-70.704;2023-02-28T02:17:03;12.03;;;6.77;;
249;SDS011;109;19.806;-70.704;2023-02-28T02:22:45;12.13;;;7.20;;
249;SDS011;109;19.806;-70.704;2023-02-28T02:31:14;12.23;;;6.47;;
249;SDS011;109;19.806;-70.704;2023-02-28T02:34:37;12.63;;;6.33;;
249;SDS011;109;19.806;-70.704;2023-02-28T02:45:46;11.73;;;6.50;;
249;SDS011;109;19.806;-70.704;2023-02-28T02:48:27;11.57;;;7.07;;
249;SDS011;109;19.806;-70.704;2023-02-28T02:51:06;14.03;;;7.13;;
249;SDS011;109;19.806;-70.704;2023-02-28T02:53:46;10.50;;;6.57;;
249;SDS011;109;19.806;-70.704;2023-02-28T02:56:27;12.83;;;6.57;;
249;SDS011;109;19.806;-70.704;2023-02-28T02:59:05;10.90;;;6.97;;
249;SDS011;109;19.806;-70.704;2023-02-28T03:01:42;12.80;;;6.63;;
249;SDS011;109;19.806;-70.704;2023-02-28T03:04:13;11.47;;;6.43;;
249;SDS011;109;19.806;-70.704;2023-02-28T03:06:51;12.70;;;6.80;;
249;SDS011;109;19.806;-70.704;2023-02-28T03:09:24;9.60;;;6.30;;
249;SDS011;109;19.806;-70.704;2023-02-28T03:11:57;14.40;;;6.90;;
249;SDS011;109;19.806;-70.704;2023-02-28T03:14:46;16.60;;;6.87;;
249;SDS011;109;19.806;-70.704;2023-02-28T03:17:38;10.90;;;6.73;;
249;SDS011;109;19.806;-70.704;2023-02-28T03:20:35;13.90;;;7.03;;
249;SDS011;109;19.806;-70.704;2023-02-28T03:23:27;14.30;;;7.00;;
249;SDS011;109;19.806;-70.704;2023-02-28T03:26:18;10.00;;;6.90;;
249;SDS011;109;19.806;-70.704;2023-02-28T03:32:00;10.80;;;6.77;;
249;SDS011;109;19.806;-70.704;2023-02-28T03:34:55;11.23;;;7.10;;
249;SDS011;109;19.806;-70.704;2023-02-28T03:37:44;13.17;;;7.60;;
249;SDS011;109;19.806;-70.704;2023-02-28T03:40:23;13.00;;;7.40;;
249;SDS011;109;19.806;-70.704;2023-02-28T03:43:01;12.50;;;7.40;;
249;SDS011;109;19.806;-70.704;2023-02-28T03:45:40;19.30;;;8.80;;
249;SDS011;109;19.806;-70.704;2023-02-28T03:50:52;14.57;;;7.90;;
249;SDS011;109;19.806;-70.704;2023-02-28T03:53:36;14.77;;;7.87;;
249;SDS011;109;19.806;-70.704;2023-02-28T03:56:19;13.07;;;7.30;;
249;SDS011;109;19.806;-70.704;2023-02-28T03:59:14;12.83;;;7.43;;
249;SDS011;109;19.806;-70.704;2023-02-28T04:01:51;13.03;;;7.33;;
249;SDS011;109;19.806;-70.704;2023-02-28T04:04:17;17.23;;;7.73;;
249;SDS011;109;19.806;-70.704;2023-02-28T04:06:51;12.10;;;6.63;;
249;SDS011;109;19.806;-70.704;2023-02-28T04:09:33;18.80;;;7.10;;
249;SDS011;109;19.806;-70.704;2023-02-28T04:11:59;11.10;;;7.10;;
249;SDS011;109;19.806;-70.704;2023-02-28T04:14:32;17.70;;;7.97;;
249;SDS011;109;19.806;-70.704;2023-02-28T04:17:05;16.60;;;8.90;;
249;SDS011;109;19.806;-70.704;2023-02-28T04:19:38;20.40;;;8.70;;
249;SDS011;109;19.806;-70.704;2023-02-28T04:22:05;16.30;;;8.47;;
249;SDS011;109;19.806;-70.704;2023-02-28T04:24:38;15.43;;;7.80;;
249;SDS011;109;19.806;-70.704;2023-02-28T04:27:08;22.37;;;6.90;;
249;SDS011;109;19.806;-70.704;2023-02-28T04:29:42;16.23;;;7.57;;
249;SDS011;109;19.806;-70.704;2023-02-28T04:32:10;15.23;;;8.60;;
249;SDS011;109;19.806;-70.704;2023-02-28T04:34:44;15.30;;;8.80;;
249;SDS011;109;19.806;-70.704;2023-02-28T04:37:30;17.63;;;9.27;;
249;SDS011;109;19.806;-70.704;2023-02-28T04:40:07;13.80;;;8.23;;
249;SDS011;109;19.806;-70.704;2023-02-28T04:42:34;14.10;;;8.23;;
249;SDS011;109;19.806;-70.704;2023-02-28T04:45:08;13.10;;;8.60;;
249;SDS011;109;19.806;-70.704;2023-02-28T04:47:36;14.20;;;7.93;;
249;SDS011;109;19.806;-70.704;2023-02-28T04:50:09;17.00;;;8.17;;
249;SDS011;109;19.806;-70.704;2023-02-28T04:52:35;19.67;;;6.60;;
249;SDS011;109;19.806;-70.704;2023-02-28T04:55:09;20.83;;;6.87;;
249;SDS011;109;19.806;-70.704;2023-02-28T04:57:35;7.87;;;5.30;;
249;SDS011;109;19.806;-70.704;2023-02-28T05:00:12;9.10;;;5.40;;
249;SDS011;109;19.806;-70.704;2023-02-28T05:02:48;15.57;;;5.03;;
249;SDS011;109;19.806;-70.704;2023-02-28T05:05:15;15.53;;;5.17;;
249;SDS011;109;19.806;-70.704;2023-02-28T05:07:50;13.17;;;5.07;;
249;SDS011;109;19.806;-70.704;2023-02-28T05:10:16;8.30;;;5.00;;
249;SDS011;109;19.806;-70.704;2023-02-28T05:12:50;9.40;;;4.97;;
249;SDS011;109;19.806;-70.704;2023-02-28T05:15:23;12.97;;;4.50;;
249;SDS011;109;19.806;-70.704;2023-02-28T05:17:57;14.80;;;4.70;;
249;SDS011;109;19.806;-70.704;2023-02-28T05:20:23;15.17;;;5.87;;
249;SDS011;109;19.806;-70.704;2023-02-28T05:22:57;13.43;;;5.70;;
249;SDS011;109;19.806;-70.704;2023-02-28T05:25:25;10.23;;;5.77;;
249;SDS011;109;19.806;-70.704;2023-02-28T05:27:58;8.50;;;5.37;;
249;SDS011;109;19.806;-70.704;2023-02-28T05:30:24;8.73;;;6.10;;
249;SDS011;109;19.806;-70.704;2023-02-28T05:32:58;12.53;;;5.57;;
249;SDS011;109;19.806;-70.704;2023-02-28T05:35:25;9.13;;;5.50;;
249;SDS011;109;19.806;-70.704;2023-02-28T05:37:59;13.03;;;6.17;;
249;SDS011;109;19.806;-70.704;2023-02-28T05:40:39;11.43;;;5.47;;
249;SDS011;109;19.806;-70.704;2023-02-28T05:43:05;15.30;;;6.10;;
249;SDS011;109;19.806;-70.704;2023-02-28T05:45:42;8.13;;;5.17;;
249;SDS011;109;19.806;-70.704;2023-02-28T05:48:09;11.07;;;4.20;;
249;SDS011;109;19.806;-70.704;2023-02-28T05:50:42;9.70;;;4.57;;
249;SDS011;109;19.806;-70.704;2023-02-28T05:53:11;8.57;;;4.87;;
249;SDS011;109;19.806;-70.704;2023-02-28T05:55:45;11.90;;;5.20;;
249;SDS011;109;19.806;-70.704;2023-02-28T05:58:11;9.33;;;4.80;;
249;SDS011;109;19.806;-70.704;2023-02-28T06:00:44;8.00;;;4.70;;
249;SDS011;109;19.806;-70.704;2023-02-28T06:03:11;7.87;;;4.60;;
249;SDS011;109;19.806;-70.704;2023-02-28T06:05:51;7.60;;;4.63;;
249;SDS011;109;19.806;-70.704;2023-02-28T06:08:25;13.43;;;4.93;;
249;SDS011;109;19.806;-70.704;2023-02-28T06:10:51;11.03;;;4.53;;
249;SDS011;109;19.806;-70.704;2023-02-28T06:13:25;9.17;;;4.63;;
249;SDS011;109;19.806;-70.704;2023-02-28T06:15:51;8.07;;;4.73;;
249;SDS011;109;19.806;-70.704;2023-02-28T06:18:24;8.87;;;4.40;;
249;SDS011;109;19.806;-70.704;2023-02-28T06:20:53;7.93;;;4.60;;
249;SDS011;109;19.806;-70.704;2023-02-28T06:23:27;8.03;;;4.40;;
249;SDS011;109;19.806;-70.704;2023-02-28T06:25:53;8.00;;;4.90;;
249;SDS011;109;19.806;-70.704;2023-02-28T06:28:30;10.03;;;4.77;;
249;SDS011;109;19.806;-70.704;2023-02-28T06:30:56;14.73;;;5.67;;
249;SDS011;109;19.806;-70.704;2023-02-28T06:33:30;17.40;;;5.03;;
249;SDS011;109;19.806;-70.704;2023-02-28T06:35:56;8.13;;;4.50;;
249;SDS011;109;19.806;-70.704;2023-02-28T06:38:30;9.63;;;5.00;;
249;SDS011;109;19.806;-70.704;2023-02-28T06:41:18;10.40;;;4.90;;
249;SDS011;109;19.806;-70.704;2023-02-28T06:43:52;10.43;;;5.67;;
249;SDS011;109;19.806;-70.704;2023-02-28T06:46:19;12.60;;;5.37;;
249;SDS011;109;19.806;-70.704;2023-02-28T06:48:52;8.47;;;5.10;;
249;SDS011;109;19.806;-70.704;2023-02-28T06:51:19;9.63;;;4.73;;
249;SDS011;109;19.806;-70.704;2023-02-28T06:53:54;13.00;;;6.13;;
249;SDS011;109;19.806;-70.704;2023-02-28T06:56:20;10.73;;;5.33;;
249;SDS011;109;19.806;-70.704;2023-02-28T06:58:54;16.57;;;5.40;;
249;SDS011;109;19.806;-70.704;2023-02-28T07:01:21;9.43;;;5.17;;
249;SDS011;109;19.806;-70.704;2023-02-28T07:03:58;8.23;;;5.07;;
249;SDS011;109;19.806;-70.704;2023-02-28T07:06:25;14.20;;;5.27;;
249;SDS011;109;19.806;-70.704;2023-02-28T07:08:59;12.80;;;5.37;;
249;SDS011;109;19.806;-70.704;2023-02-28T07:11:26;9.13;;;5.50;;
249;SDS011;109;19.806;-70.704;2023-02-28T07:14:00;10.13;;;5.17;;
249;SDS011;109;19.806;-70.704;2023-02-28T07:16:33;10.67;;;5.50;;
249;SDS011;109;19.806;-70.704;2023-02-28T07:19:08;12.07;;;5.57;;
249;SDS011;109;19.806;-70.704;2023-02-28T07:21:34;12.30;;;5.90;;
249;SDS011;109;19.806;-70.704;2023-02-28T07:24:07;9.73;;;5.63;;
249;SDS011;109;19.806;-70.704;2023-02-28T07:26:33;13.13;;;6.70;;
249;SDS011;109;19.806;-70.704;2023-02-28T07:29:07;11.33;;;5.80;;
249;SDS011;109;19.806;-70.704;2023-02-28T07:31:33;14.03;;;6.20;;
249;SDS011;109;19.806;-70.704;2023-02-28T07:34:07;10.17;;;5.87;;
249;SDS011;109;19.806;-70.704;2023-02-28T07:36:33;10.47;;;5.70;;
249;SDS011;109;19.806;-70.704;2023-02-28T07:39:07;11.30;;;5.90;;
249;SDS011;109;19.806;-70.704;2023-02-28T07:41:47;9.03;;;5.97;;
249;SDS011;109;19.806;-70.704;2023-02-28T07:44:13;11.40;;;5.60;;
249;SDS011;109;19.806;-70.704;2023-02-28T07:46:47;8.70;;;5.23;;
249;SDS011;109;19.806;-70.704;2023-02-28T07:49:13;7.73;;;5.33;;
249;SDS011;109;19.806;-70.704;2023-02-28T07:51:47;8.00;;;5.63;;
249;SDS011;109;19.806;-70.704;2023-02-28T07:54:13;8.60;;;5.37;;
249;SDS011;109;19.806;-70.704;2023-02-28T07:56:46;7.60;;;5.60;;
249;SDS011;109;19.806;-70.704;2023-02-28T07:59:12;8.90;;;5.80;;
249;SDS011;109;19.806;-70.704;2023-02-28T08:01:52;10.93;;;5.80;;
249;SDS011;109;19.806;-70.704;2023-02-28T08:04:26;12.83;;;5.57;;
249;SDS011;109;19.806;-70.704;2023-02-28T08:06:52;6.90;;;4.93;;
249;SDS011;109;19.806;-70.704;2023-02-28T08:09:26;11.30;;;5.37;;
249;SDS011;109;19.806;-70.704;2023-02-28T08:11:52;8.63;;;6.00;;
249;SDS011;109;19.806;-70.704;2023-02-28T08:14:26;7.90;;;5.80;;
249;SDS011;109;19.806;-70.704;2023-02-28T08:16:52;9.53;;;5.60;;
249;SDS011;109;19.806;-70.704;2023-02-28T08:19:26;13.60;;;5.90;;
249;SDS011;109;19.806;-70.704;2023-02-28T08:21:52;10.97;;;5.67;;
249;SDS011;109;19.806;-70.704;2023-02-28T08:24:26;10.47;;;5.27;;
249;SDS011;109;19.806;-70.704;2023-02-28T08:26:52;8.80;;;6.03;;
249;SDS011;109;19.806;-70.704;2023-02-28T08:29:26;7.07;;;5.10;;
249;SDS011;109;19.806;-70.704;2023-02-28T08:31:52;11.93;;;6.13;;
249;SDS011;109;19.806;-70.704;2023-02-28T08:34:26;11.50;;;6.30;;
249;SDS011;109;19.806;-70.704;2023-02-28T08:37:12;8.00;;;5.90;;
249;SDS011;109;19.806;-70.704;2023-02-28T08:39:46;9.43;;;5.37;;
249;SDS011;109;19.806;-70.704;2023-02-28T08:42:12;7.40;;;5.60;;
249;SDS011;109;19.806;-70.704;2023-02-28T08:44:46;8.23;;;5.40;;
249;SDS011;109;19.806;-70.704;2023-02-28T08:47:19;10.53;;;5.40;;
249;SDS011;109;19.806;-70.704;2023-02-28T08:49:53;9.60;;;5.60;;
249;SDS011;109;19.806;-70.704;2023-02-28T08:52:19;14.10;;;6.50;;
249;SDS011;109;19.806;-70.704;2023-02-28T08:54:53;8.70;;;5.10;;
249;SDS011;109;19.806;-70.704;2023-02-28T08:57:19;9.87;;;6.10;;
249;SDS011;109;19.806;-70.704;2023-02-28T08:59:53;7.47;;;5.40;;
249;SDS011;109;19.806;-70.704;2023-02-28T09:02:19;7.67;;;4.93;;
249;SDS011;109;19.806;-70.704;2023-02-28T09:04:53;10.47;;;5.73;;
249;SDS011;109;19.806;-70.704;2023-02-28T09:07:20;13.07;;;5.90;;
249;SDS011;109;19.806;-70.704;2023-02-28T09:09:54;10.40;;;5.70;;
249;SDS011;109;19.806;-70.704;2023-02-28T09:12:24;7.10;;;5.30;;
249;SDS011;109;19.806;-70.704;2023-02-28T09:14:59;7.97;;;5.37;;
249;SDS011;109;19.806;-70.704;2023-02-28T09:17:25;7.87;;;5.10;;
249;SDS011;109;19.806;-70.704;2023-02-28T09:19:59;11.30;;;5.70;;
249;SDS011;109;19.806;-70.704;2023-02-28T09:22:25;9.77;;;5.20;;
249;SDS011;109;19.806;-70.704;2023-02-28T09:24:59;14.23;;;6.17;;
249;SDS011;109;19.806;-70.704;2023-02-28T09:27:25;14.83;;;6.30;;
249;SDS011;109;19.806;-70.704;2023-02-28T09:29:59;9.37;;;5.37;;
249;SDS011;109;19.806;-70.704;2023-02-28T09:32:25;10.87;;;5.80;;
249;SDS011;109;19.806;-70.704;2023-02-28T09:34:59;12.37;;;5.50;;
249;SDS011;109;19.806;-70.704;2023-02-28T09:37:47;11.63;;;5.23;;
249;SDS011;109;19.806;-70.704;2023-02-28T09:40:22;13.30;;;5.47;;
249;SDS011;109;19.806;-70.704;2023-02-28T09:42:51;9.87;;;5.20;;
249;SDS011;109;19.806;-70.704;2023-02-28T09:45:29;7.90;;;5.40;;
249;SDS011;109;19.806;-70.704;2023-02-28T09:48:12;11.37;;;6.10;;
249;SDS011;109;19.806;-70.704;2023-02-28T09:51:00;10.27;;;5.63;;
249;SDS011;109;19.806;-70.704;2023-02-28T09:53:36;13.73;;;6.40;;
249;SDS011;109;19.806;-70.704;2023-02-28T09:56:13;10.77;;;5.70;;
249;SDS011;109;19.806;-70.704;2023-02-28T09:58:59;8.23;;;5.33;;
249;SDS011;109;19.806;-70.704;2023-02-28T10:01:56;9.40;;;5.97;;
249;SDS011;109;19.806;-70.704;2023-02-28T10:04:54;10.10;;;5.60;;
249;SDS011;109;19.806;-70.704;2023-02-28T10:07:50;12.60;;;5.70;;
249;SDS011;109;19.806;-70.704;2023-02-28T10:13:26;10.67;;;6.33;;
249;SDS011;109;19.806;-70.704;2023-02-28T10:16:07;10.40;;;6.40;;
249;SDS011;109;19.806;-70.704;2023-02-28T10:18:47;11.33;;;5.87;;
249;SDS011;109;19.806;-70.704;2023-02-28T10:21:30;10.87;;;5.83;;
249;SDS011;109;19.806;-70.704;2023-02-28T10:27:12;9.90;;;5.93;;
249;SDS011;109;19.806;-70.704;2023-02-28T10:29:58;10.80;;;5.13;;
249;SDS011;109;19.806;-70.704;2023-02-28T10:32:30;13.60;;;6.17;;
249;SDS011;109;19.806;-70.704;2023-02-28T10:38:52;12.20;;;6.90;;
249;SDS011;109;19.806;-70.704;2023-02-28T10:41:33;9.70;;;6.37;;
249;SDS011;109;19.806;-70.704;2023-02-28T10:44:14;15.07;;;6.33;;
249;SDS011;109;19.806;-70.704;2023-02-28T10:46:53;12.40;;;6.43;;
249;SDS011;109;19.806;-70.704;2023-02-28T10:49:20;8.73;;;5.80;;
249;SDS011;109;19.806;-70.704;2023-02-28T10:51:59;9.23;;;6.00;;
249;SDS011;109;19.806;-70.704;2023-02-28T10:54:34;10.83;;;5.77;;
249;SDS011;109;19.806;-70.704;2023-02-28T10:57:07;9.00;;;6.53;;
249;SDS011;109;19.806;-70.704;2023-02-28T10:59:40;13.27;;;5.97;;
249;SDS011;109;19.806;-70.704;2023-02-28T11:05:00;12.13;;;6.00;;
249;SDS011;109;19.806;-70.704;2023-02-28T11:07:26;10.20;;;6.30;;
249;SDS011;109;19.806;-70.704;2023-02-28T11:09:54;13.37;;;6.97;;
249;SDS011;109;19.806;-70.704;2023-02-28T11:14:53;8.43;;;6.50;;
249;SDS011;109;19.806;-70.704;2023-02-28T11:17:27;12.90;;;6.43;;
249;SDS011;109;19.806;-70.704;2023-02-28T11:19:57;10.77;;;5.80;;
249;SDS011;109;19.806;-70.704;2023-02-28T11:22:35;17.30;;;6.67;;
249;SDS011;109;19.806;-70.704;2023-02-28T11:25:12;8.77;;;6.20;;
249;SDS011;109;19.806;-70.704;2023-02-28T11:27:48;9.40;;;6.83;;
249;SDS011;109;19.806;-70.704;2023-02-28T11:33:00;11.33;;;6.30;;
249;SDS011;109;19.806;-70.704;2023-02-28T11:35:45;11.37;;;6.27;;
249;SDS011;109;19.806;-70.704;2023-02-28T11:38:13;9.80;;;6.20;;
249;SDS011;109;19.806;-70.704;2023-02-28T11:40:44;10.93;;;6.30;;
249;SDS011;109;19.806;-70.704;2023-02-28T11:48:56;13.50;;;7.20;;
249;SDS011;109;19.806;-70.704;2023-02-28T11:51:32;9.63;;;6.67;;
249;SDS011;109;19.806;-70.704;2023-02-28T11:56:39;11.40;;;6.23;;
249;SDS011;109;19.806;-70.704;2023-02-28T12:04:59;11.43;;;5.87;;
249;SDS011;109;19.806;-70.704;2023-02-28T12:27:14;6.37;;;4.83;;
249;SDS011;109;19.806;-70.704;2023-02-28T12:29:49;9.43;;;5.87;;
249;SDS011;109;19.806;-70.704;2023-02-28T12:35:11;8.60;;;5.33;;
249;SDS011;109;19.806;-70.704;2023-02-28T12:37:41;8.63;;;5.17;;
249;SDS011;109;19.806;-70.704;2023-02-28T12:40:13;8.80;;;5.63;;
249;SDS011;109;19.806;-70.704;2023-02-28T12:42:51;12.90;;;5.20;;
249;SDS011;109;19.806;-70.704;2023-02-28T12:45:23;10.93;;;5.00;;
249;SDS011;109;19.806;-70.704;2023-02-28T12:48:08;5.50;;;4.83;;
249;SDS011;109;19.806;-70.704;2023-02-28T12:50:40;6.73;;;4.97;;
249;SDS011;109;19.806;-70.704;2023-02-28T13:09:55;7.20;;;4.73;;
249;SDS011;109;19.806;-70.704;2023-02-28T13:12:25;7.97;;;4.57;;
249;SDS011;109;19.806;-70.704;2023-02-28T13:15:01;8.20;;;5.20;;
249;SDS011;109;19.806;-70.704;2023-02-28T13:17:38;6.87;;;4.30;;
249;SDS011;109;19.806;-70.704;2023-02-28T13:20:26;10.97;;;4.37;;
249;SDS011;109;19.806;-70.704;2023-02-28T13:22:55;7.10;;;4.10;;
249;SDS011;109;19.806;-70.704;2023-02-28T13:27:50;7.50;;;4.90;;
249;SDS011;109;19.806;-70.704;2023-02-28T13:33:33;9.87;;;5.00;;
249;SDS011;109;19.806;-70.704;2023-02-28T13:38:40;8.50;;;4.77;;
249;SDS011;109;19.806;-70.704;2023-02-28T13:46:34;6.53;;;3.80;;
249;SDS011;109;19.806;-70.704;2023-02-28T13:57:30;17.17;;;5.73;;
249;SDS011;109;19.806;-70.704;2023-02-28T14:06:08;22.90;;;6.43;;
249;SDS011;109;19.806;-70.704;2023-02-28T14:09:02;18.93;;;5.50;;
249;SDS011;109;19.806;-70.704;2023-02-28T14:11:31;16.30;;;6.37;;
249;SDS011;109;19.806;-70.704;2023-02-28T14:14:01;13.37;;;6.40;;
249;SDS011;109;19.806;-70.704;2023-02-28T14:16:39;14.23;;;5.30;;
249;SDS011;109;19.806;-70.704;2023-02-28T14:19:11;10.63;;;5.40;;
249;SDS011;109;19.806;-70.704;2023-02-28T14:36:20;20.47;;;7.00;;
249;SDS011;109;19.806;-70.704;2023-02-28T14:38:52;14.87;;;5.87;;
249;SDS011;109;19.806;-70.704;2023-02-28T14:41:29;20.50;;;6.70;;
249;SDS011;109;19.806;-70.704;2023-02-28T14:44:01;21.57;;;6.30;;
249;SDS011;109;19.806;-70.704;2023-02-28T14:46:39;42.17;;;7.80;;
249;SDS011;109;19.806;-70.704;2023-02-28T14:51:43;29.53;;;7.97;;
249;SDS011;109;19.806;-70.704;2023-02-28T14:54:13;24.47;;;7.20;;
249;SDS011;109;19.806;-70.704;2023-02-28T14:56:42;20.93;;;6.10;;
249;SDS011;109;19.806;-70.704;2023-02-28T14:59:23;31.10;;;6.87;;
249;SDS011;109;19.806;-70.704;2023-02-28T15:01:52;23.73;;;6.17;;
249;SDS011;109;19.806;-70.704;2023-02-28T15:04:41;47.30;;;7.97;;
249;SDS011;109;19.806;-70.704;2023-02-28T15:07:13;14.17;;;4.77;;
249;SDS011;109;19.806;-70.704;2023-02-28T15:09:40;23.10;;;6.50;;
249;SDS011;109;19.806;-70.704;2023-02-28T15:12:07;51.80;;;6.70;;
249;SDS011;109;19.806;-70.704;2023-02-28T15:14:39;34.50;;;5.93;;
249;SDS011;109;19.806;-70.704;2023-02-28T15:17:11;31.87;;;6.90;;
249;SDS011;109;19.806;-70.704;2023-02-28T15:19:51;30.07;;;6.57;;
249;SDS011;109;19.806;-70.704;2023-02-28T15:22:27;22.73;;;6.87;;
249;SDS011;109;19.806;-70.704;2023-02-28T15:25:02;20.50;;;5.37;;
249;SDS011;109;19.806;-70.704;2023-02-28T15:27:32;26.10;;;5.80;;
249;SDS011;109;19.806;-70.704;2023-02-28T15:30:00;27.43;;;6.03;;
249;SDS011;109;19.806;-70.704;2023-02-28T15:32:37;45.03;;;8.67;;
249;SDS011;109;19.806;-70.704;2023-02-28T15:37:57;45.57;;;10.57;;
249;SDS011;109;19.806;-70.704;2023-02-28T15:40:53;51.00;;;11.10;;
249;SDS011;109;19.806;-70.704;2023-02-28T15:43:31;46.67;;;10.50;;
249;SDS011;109;19.806;-70.704;2023-02-28T15:46:04;32.03;;;7.87;;
249;SDS011;109;19.806;-70.704;2023-02-28T15:48:37;31.90;;;7.70;;
249;SDS011;109;19.806;-70.704;2023-02-28T15:51:23;28.33;;;8.37;;
249;SDS011;109;19.806;-70.704;2023-02-28T15:54:00;21.33;;;6.87;;
249;SDS011;109;19.806;-70.704;2023-02-28T15:56:31;35.20;;;8.13;;
249;SDS011;109;19.806;-70.704;2023-02-28T15:59:02;44.03;;;7.57;;
249;SDS011;109;19.806;-70.704;2023-02-28T16:01:35;34.63;;;7.80;;
249;SDS011;109;19.806;-70.704;2023-02-28T16:04:05;29.03;;;7.70;;
249;SDS011;109;19.806;-70.704;2023-02-28T16:06:40;27.07;;;8.43;;
249;SDS011;109;19.806;-70.704;2023-02-28T16:09:26;23.47;;;7.47;;
249;SDS011;109;19.806;-70.704;2023-02-28T16:11:59;31.23;;;7.97;;
249;SDS011;109;19.806;-70.704;2023-02-28T16:14:28;38.60;;;9.20;;
249;SDS011;109;19.806;-70.704;2023-02-28T16:16:57;39.77;;;8.03;;
249;SDS011;109;19.806;-70.704;2023-02-28T16:19:32;37.60;;;9.03;;
249;SDS011;109;19.806;-70.704;2023-02-28T16:21:58;32.53;;;7.90;;
249;SDS011;109;19.806;-70.704;2023-02-28T16:24:25;41.63;;;7.93;;
249;SDS011;109;19.806;-70.704;2023-02-28T16:26:52;48.47;;;11.87;;
249;SDS011;109;19.806;-70.704;2023-02-28T16:29:26;43.03;;;9.10;;
249;SDS011;109;19.806;-70.704;2023-02-28T16:31:58;40.93;;;7.90;;
249;SDS011;109;19.806;-70.704;2023-02-28T16:34:25;52.77;;;9.53;;
249;SDS011;109;19.806;-70.704;2023-02-28T16:36:52;64.47;;;11.80;;
249;SDS011;109;19.806;-70.704;2023-02-28T16:39:19;24.73;;;6.60;;
249;SDS011;109;19.806;-70.704;2023-02-28T16:41:48;37.73;;;7.73;;
249;SDS011;109;19.806;-70.704;2023-02-28T16:44:29;37.40;;;8.40;;
249;SDS011;109;19.806;-70.704;2023-02-28T16:46:59;28.37;;;6.40;;
249;SDS011;109;19.806;-70.704;2023-02-28T16:49:33;23.47;;;5.53;;
249;SDS011;109;19.806;-70.704;2023-02-28T16:51:59;46.83;;;9.40;;
249;SDS011;109;19.806;-70.704;2023-02-28T16:54:26;36.03;;;7.93;;
249;SDS011;109;19.806;-70.704;2023-02-28T16:56:52;35.73;;;8.10;;
249;SDS011;109;19.806;-70.704;2023-02-28T16:59:21;29.37;;;6.80;;
249;SDS011;109;19.806;-70.704;2023-02-28T17:01:50;37.77;;;8.93;;
249;SDS011;109;19.806;-70.704;2023-02-28T17:04:17;28.63;;;7.07;;
249;SDS011;109;19.806;-70.704;2023-02-28T17:06:44;53.57;;;9.77;;
249;SDS011;109;19.806;-70.704;2023-02-28T17:09:16;35.00;;;6.70;;
249;SDS011;109;19.806;-70.704;2023-02-28T17:11:45;24.60;;;7.60;;
249;SDS011;109;19.806;-70.704;2023-02-28T17:14:12;37.47;;;6.80;;
249;SDS011;109;19.806;-70.704;2023-02-28T17:16:39;33.67;;;9.10;;
249;SDS011;109;19.806;-70.704;2023-02-28T17:19:14;31.50;;;6.80;;
249;SDS011;109;19.806;-70.704;2023-02-28T17:21:42;49.10;;;9.37;;
249;SDS011;109;19.806;-70.704;2023-02-28T17:24:10;78.93;;;9.07;;
249;SDS011;109;19.806;-70.704;2023-02-28T17:26:40;37.70;;;7.90;;
249;SDS011;109;19.806;-70.704;2023-02-28T17:29:18;56.03;;;10.47;;
249;SDS011;109;19.806;-70.704;2023-02-28T17:31:47;34.37;;;7.83;;
249;SDS011;109;19.806;-70.704;2023-02-28T17:34:14;30.13;;;6.80;;
249;SDS011;109;19.806;-70.704;2023-02-28T17:36:44;50.13;;;9.73;;
249;SDS011;109;19.806;-70.704;2023-02-28T17:39:12;35.67;;;7.50;;
249;SDS011;109;19.806;-70.704;2023-02-28T17:41:40;24.13;;;6.60;;
249;SDS011;109;19.806;-70.704;2023-02-28T17:44:08;44.37;;;8.30;;
249;SDS011;109;19.806;-70.704;2023-02-28T17:46:35;29.60;;;7.30;;
249;SDS011;109;19.806;-70.704;2023-02-28T17:49:02;30.97;;;6.63;;
249;SDS011;109;19.806;-70.704;2023-02-28T17:51:29;47.40;;;11.40;;
249;SDS011;109;19.806;-70.704;2023-02-28T17:53:55;49.53;;;9.37;;
249;SDS011;109;19.806;-70.704;2023-02-28T17:56:22;70.70;;;9.77;;
249;SDS011;109;19.806;-70.704;2023-02-28T17:58:54;43.50;;;8.57;;
249;SDS011;109;19.806;-70.704;2023-02-28T18:01:22;34.10;;;8.00;;
249;SDS011;109;19.806;-70.704;2023-02-28T18:03:51;75.37;;;10.33;;
249;SDS011;109;19.806;-70.704;2023-02-28T18:06:21;49.63;;;10.03;;